sensor_id;sensor_type;location;lat;lon;timestamp;P1;durP1;ratioP1;P2;durP2;ratioP2
32200;SDS011;18701;45.588;5.288;2023-08-12T00:01:54;4.05;;;1.20;;
32200;SDS011;18701;45.588;5.288;2023-08-12T00:04:19;2.85;;;0.80;;
32200;SDS011;18701;45.588;5.288;2023-08-12T00:06:45;4.43;;;1.33;;
32200;SDS011;18701;45.588;5.288;2023-08-12T00:09:11;8.63;;;0.90;;
32200;SDS011;18701;45.588;5.288;2023-08-12T00:11:37;3.58;;;0.90;;
32200;SDS011;18701;45.588;5.288;2023-08-12T00:14:03;5.90;;;1.30;;
32200;SDS011;18701;45.588;5.288;2023-08-12T00:16:29;6.40;;;1.13;;
32200;SDS011;18701;45.588;5.288;2023-08-12T00:18:54;6.47;;;0.80;;
32200;SDS011;18701;45.588;5.288;2023-08-12T00:21:20;4.25;;;1.00;;
32200;SDS011;18701;45.588;5.288;2023-08-12T00:23:46;4.70;;;1.15;;
32200;SDS011;18701;45.588;5.288;2023-08-12T00:26:16;2.58;;;0.88;;
32200;SDS011;18701;45.588;5.288;2023-08-12T00:28:42;6.00;;;1.10;;
32200;SDS011;18701;45.588;5.288;2023-08-12T00:31:07;4.43;;;1.33;;
32200;SDS011;18701;45.588;5.288;2023-08-12T00:33:33;5.03;;;1.00;;
32200;SDS011;18701;45.588;5.288;2023-08-12T00:35:59;4.20;;;0.90;;
32200;SDS011;18701;45.588;5.288;2023-08-12T00:38:25;6.20;;;0.98;;
32200;SDS011;18701;45.588;5.288;2023-08-12T00:40:50;6.50;;;1.20;;
32200;SDS011;18701;45.588;5.288;2023-08-12T00:43:16;2.17;;;1.20;;
32200;SDS011;18701;45.588;5.288;2023-08-12T00:45:42;4.30;;;1.15;;
32200;SDS011;18701;45.588;5.288;2023-08-12T00:48:08;3.63;;;1.20;;
32200;SDS011;18701;45.588;5.288;2023-08-12T00:50:35;4.70;;;1.00;;
32200;SDS011;18701;45.588;5.288;2023-08-12T00:53:02;4.97;;;1.08;;
32200;SDS011;18701;45.588;5.288;2023-08-12T00:55:31;2.20;;;0.73;;
32200;SDS011;18701;45.588;5.288;2023-08-12T00:57:57;4.53;;;1.00;;
32200;SDS011;18701;45.588;5.288;2023-08-12T01:00:23;2.63;;;1.10;;
32200;SDS011;18701;45.588;5.288;2023-08-12T01:02:49;3.75;;;0.95;;
32200;SDS011;18701;45.588;5.288;2023-08-12T01:05:16;5.95;;;1.10;;
32200;SDS011;18701;45.588;5.288;2023-08-12T01:07:42;5.05;;;0.85;;
32200;SDS011;18701;45.588;5.288;2023-08-12T01:10:10;3.90;;;1.27;;
32200;SDS011;18701;45.588;5.288;2023-08-12T01:12:41;4.40;;;0.95;;
32200;SDS011;18701;45.588;5.288;2023-08-12T01:15:24;4.80;;;1.08;;
32200;SDS011;18701;45.588;5.288;2023-08-12T01:17:51;5.15;;;0.70;;
32200;SDS011;18701;45.588;5.288;2023-08-12T01:20:22;4.60;;;1.08;;
32200;SDS011;18701;45.588;5.288;2023-08-12T01:22:56;7.60;;;1.10;;
32200;SDS011;18701;45.588;5.288;2023-08-12T01:25:26;8.88;;;1.10;;
32200;SDS011;18701;45.588;5.288;2023-08-12T01:27:51;2.85;;;0.73;;
32200;SDS011;18701;45.588;5.288;2023-08-12T01:30:17;5.47;;;0.80;;
32200;SDS011;18701;45.588;5.288;2023-08-12T01:32:56;6.18;;;0.82;;
32200;SDS011;18701;45.588;5.288;2023-08-12T01:35:26;9.13;;;0.70;;
32200;SDS011;18701;45.588;5.288;2023-08-12T01:37:58;2.75;;;0.82;;
32200;SDS011;18701;45.588;5.288;2023-08-12T01:40:28;4.57;;;0.93;;
32200;SDS011;18701;45.588;5.288;2023-08-12T01:42:54;1.65;;;0.70;;
32200;SDS011;18701;45.588;5.288;2023-08-12T01:45:20;3.42;;;0.88;;
32200;SDS011;18701;45.588;5.288;2023-08-12T01:47:45;2.08;;;0.88;;
32200;SDS011;18701;45.588;5.288;2023-08-12T01:50:11;3.15;;;0.60;;
32200;SDS011;18701;45.588;5.288;2023-08-12T01:52:36;2.65;;;0.93;;
32200;SDS011;18701;45.588;5.288;2023-08-12T01:55:02;2.67;;;0.80;;
32200;SDS011;18701;45.588;5.288;2023-08-12T01:57:29;7.15;;;0.75;;
32200;SDS011;18701;45.588;5.288;2023-08-12T01:59:54;2.25;;;0.60;;
32200;SDS011;18701;45.588;5.288;2023-08-12T02:02:20;1.80;;;0.73;;
32200;SDS011;18701;45.588;5.288;2023-08-12T02:04:46;2.75;;;0.90;;
32200;SDS011;18701;45.588;5.288;2023-08-12T02:07:11;3.72;;;0.98;;
32200;SDS011;18701;45.588;5.288;2023-08-12T02:09:37;3.67;;;0.85;;
32200;SDS011;18701;45.588;5.288;2023-08-12T02:12:02;3.08;;;0.95;;
32200;SDS011;18701;45.588;5.288;2023-08-12T02:14:28;6.32;;;0.85;;
32200;SDS011;18701;45.588;5.288;2023-08-12T02:16:54;5.13;;;1.10;;
32200;SDS011;18701;45.588;5.288;2023-08-12T02:19:19;4.78;;;0.70;;
32200;SDS011;18701;45.588;5.288;2023-08-12T02:21:45;9.75;;;0.95;;
32200;SDS011;18701;45.588;5.288;2023-08-12T02:24:11;5.22;;;0.57;;
32200;SDS011;18701;45.588;5.288;2023-08-12T02:26:37;5.13;;;1.27;;
32200;SDS011;18701;45.588;5.288;2023-08-12T02:29:03;2.28;;;0.77;;
32200;SDS011;18701;45.588;5.288;2023-08-12T02:31:29;7.28;;;0.98;;
32200;SDS011;18701;45.588;5.288;2023-08-12T02:33:54;3.38;;;0.95;;
32200;SDS011;18701;45.588;5.288;2023-08-12T02:36:20;4.10;;;0.85;;
32200;SDS011;18701;45.588;5.288;2023-08-12T02:38:46;4.95;;;0.85;;
32200;SDS011;18701;45.588;5.288;2023-08-12T02:41:11;5.47;;;0.80;;
32200;SDS011;18701;45.588;5.288;2023-08-12T02:43:37;4.40;;;0.95;;
32200;SDS011;18701;45.588;5.288;2023-08-12T02:46:02;1.83;;;0.85;;
32200;SDS011;18701;45.588;5.288;2023-08-12T02:48:28;3.65;;;0.65;;
32200;SDS011;18701;45.588;5.288;2023-08-12T02:50:54;3.30;;;0.73;;
32200;SDS011;18701;45.588;5.288;2023-08-12T02:53:19;2.83;;;0.90;;
32200;SDS011;18701;45.588;5.288;2023-08-12T02:55:45;4.93;;;0.93;;
32200;SDS011;18701;45.588;5.288;2023-08-12T02:58:11;2.50;;;0.70;;
32200;SDS011;18701;45.588;5.288;2023-08-12T03:00:36;10.05;;;0.98;;
32200;SDS011;18701;45.588;5.288;2023-08-12T03:03:02;5.57;;;0.82;;
32200;SDS011;18701;45.588;5.288;2023-08-12T03:05:30;3.80;;;0.95;;
32200;SDS011;18701;45.588;5.288;2023-08-12T03:07:56;2.15;;;0.88;;
32200;SDS011;18701;45.588;5.288;2023-08-12T03:10:22;3.17;;;0.77;;
32200;SDS011;18701;45.588;5.288;2023-08-12T03:12:48;5.38;;;0.95;;
32200;SDS011;18701;45.588;5.288;2023-08-12T03:15:13;5.07;;;1.38;;
32200;SDS011;18701;45.588;5.288;2023-08-12T03:17:39;2.22;;;0.70;;
32200;SDS011;18701;45.588;5.288;2023-08-12T03:20:05;3.30;;;0.80;;
32200;SDS011;18701;45.588;5.288;2023-08-12T03:22:33;5.55;;;0.70;;
32200;SDS011;18701;45.588;5.288;2023-08-12T03:25:00;3.50;;;1.10;;
32200;SDS011;18701;45.588;5.288;2023-08-12T03:27:26;4.25;;;0.82;;
32200;SDS011;18701;45.588;5.288;2023-08-12T03:29:51;2.97;;;0.70;;
32200;SDS011;18701;45.588;5.288;2023-08-12T03:32:17;4.47;;;0.80;;
32200;SDS011;18701;45.588;5.288;2023-08-12T03:34:43;2.22;;;0.85;;
32200;SDS011;18701;45.588;5.288;2023-08-12T03:37:08;2.05;;;0.75;;
32200;SDS011;18701;45.588;5.288;2023-08-12T03:39:34;2.03;;;0.73;;
32200;SDS011;18701;45.588;5.288;2023-08-12T03:41:59;3.65;;;0.80;;
32200;SDS011;18701;45.588;5.288;2023-08-12T03:44:25;2.15;;;0.70;;
32200;SDS011;18701;45.588;5.288;2023-08-12T03:46:51;2.70;;;0.70;;
32200;SDS011;18701;45.588;5.288;2023-08-12T03:49:16;3.58;;;0.60;;
32200;SDS011;18701;45.588;5.288;2023-08-12T03:51:42;6.10;;;0.82;;
32200;SDS011;18701;45.588;5.288;2023-08-12T03:54:08;4.00;;;0.85;;
32200;SDS011;18701;45.588;5.288;2023-08-12T03:56:33;5.15;;;1.20;;
32200;SDS011;18701;45.588;5.288;2023-08-12T03:58:59;3.35;;;1.17;;
32200;SDS011;18701;45.588;5.288;2023-08-12T04:01:24;4.53;;;0.90;;
32200;SDS011;18701;45.588;5.288;2023-08-12T04:03:50;2.47;;;0.68;;
32200;SDS011;18701;45.588;5.288;2023-08-12T04:06:16;2.10;;;0.80;;
32200;SDS011;18701;45.588;5.288;2023-08-12T04:08:41;2.70;;;0.93;;
32200;SDS011;18701;45.588;5.288;2023-08-12T04:11:07;2.35;;;0.80;;
32200;SDS011;18701;45.588;5.288;2023-08-12T04:13:33;4.10;;;0.90;;
32200;SDS011;18701;45.588;5.288;2023-08-12T04:15:58;2.45;;;1.10;;
32200;SDS011;18701;45.588;5.288;2023-08-12T04:18:24;3.35;;;1.25;;
32200;SDS011;18701;45.588;5.288;2023-08-12T04:20:49;7.82;;;0.95;;
32200;SDS011;18701;45.588;5.288;2023-08-12T04:23:16;4.18;;;1.02;;
32200;SDS011;18701;45.588;5.288;2023-08-12T04:25:46;2.55;;;0.90;;
32200;SDS011;18701;45.588;5.288;2023-08-12T04:28:12;4.10;;;0.60;;
32200;SDS011;18701;45.588;5.288;2023-08-12T04:30:46;6.22;;;1.10;;
32200;SDS011;18701;45.588;5.288;2023-08-12T04:33:13;3.08;;;0.90;;
32200;SDS011;18701;45.588;5.288;2023-08-12T04:35:39;3.05;;;0.90;;
32200;SDS011;18701;45.588;5.288;2023-08-12T04:38:05;5.93;;;1.60;;
32200;SDS011;18701;45.588;5.288;2023-08-12T04:40:31;2.28;;;0.90;;
32200;SDS011;18701;45.588;5.288;2023-08-12T04:43:00;5.93;;;1.13;;
32200;SDS011;18701;45.588;5.288;2023-08-12T04:45:26;2.95;;;0.95;;
32200;SDS011;18701;45.588;5.288;2023-08-12T04:47:52;2.47;;;0.70;;
32200;SDS011;18701;45.588;5.288;2023-08-12T04:50:18;3.90;;;0.77;;
32200;SDS011;18701;45.588;5.288;2023-08-12T04:52:47;1.98;;;0.90;;
32200;SDS011;18701;45.588;5.288;2023-08-12T04:55:13;3.15;;;1.00;;
32200;SDS011;18701;45.588;5.288;2023-08-12T04:57:38;3.97;;;0.90;;
32200;SDS011;18701;45.588;5.288;2023-08-12T05:00:04;4.05;;;0.68;;
32200;SDS011;18701;45.588;5.288;2023-08-12T05:02:34;4.80;;;1.02;;
32200;SDS011;18701;45.588;5.288;2023-08-12T05:05:00;3.20;;;0.85;;
32200;SDS011;18701;45.588;5.288;2023-08-12T05:07:26;4.82;;;0.85;;
32200;SDS011;18701;45.588;5.288;2023-08-12T05:09:52;3.60;;;0.88;;
32200;SDS011;18701;45.588;5.288;2023-08-12T05:12:17;2.75;;;0.93;;
32200;SDS011;18701;45.588;5.288;2023-08-12T05:14:43;3.97;;;0.82;;
32200;SDS011;18701;45.588;5.288;2023-08-12T05:17:09;4.25;;;1.05;;
32200;SDS011;18701;45.588;5.288;2023-08-12T05:19:35;4.18;;;1.20;;
32200;SDS011;18701;45.588;5.288;2023-08-12T05:22:00;7.68;;;1.10;;
32200;SDS011;18701;45.588;5.288;2023-08-12T05:24:26;5.82;;;0.95;;
32200;SDS011;18701;45.588;5.288;2023-08-12T05:26:51;3.30;;;0.88;;
32200;SDS011;18701;45.588;5.288;2023-08-12T05:29:17;2.38;;;1.08;;
32200;SDS011;18701;45.588;5.288;2023-08-12T05:31:42;2.65;;;1.02;;
32200;SDS011;18701;45.588;5.288;2023-08-12T05:34:08;3.85;;;0.95;;
32200;SDS011;18701;45.588;5.288;2023-08-12T05:36:35;2.22;;;0.85;;
32200;SDS011;18701;45.588;5.288;2023-08-12T05:39:01;6.70;;;0.95;;
32200;SDS011;18701;45.588;5.288;2023-08-12T05:41:27;3.70;;;0.63;;
32200;SDS011;18701;45.588;5.288;2023-08-12T05:43:53;3.60;;;0.80;;
32200;SDS011;18701;45.588;5.288;2023-08-12T05:46:18;6.03;;;1.20;;
32200;SDS011;18701;45.588;5.288;2023-08-12T05:48:44;1.80;;;0.90;;
32200;SDS011;18701;45.588;5.288;2023-08-12T05:51:12;4.32;;;1.08;;
32200;SDS011;18701;45.588;5.288;2023-08-12T05:53:38;5.95;;;0.98;;
32200;SDS011;18701;45.588;5.288;2023-08-12T05:56:03;5.25;;;1.50;;
32200;SDS011;18701;45.588;5.288;2023-08-12T05:58:29;3.83;;;0.80;;
32200;SDS011;18701;45.588;5.288;2023-08-12T06:00:55;3.67;;;0.90;;
32200;SDS011;18701;45.588;5.288;2023-08-12T06:03:20;1.98;;;0.90;;
32200;SDS011;18701;45.588;5.288;2023-08-12T06:05:46;6.05;;;0.90;;
32200;SDS011;18701;45.588;5.288;2023-08-12T06:08:13;6.68;;;1.02;;
32200;SDS011;18701;45.588;5.288;2023-08-12T06:10:39;2.88;;;0.82;;
32200;SDS011;18701;45.588;5.288;2023-08-12T06:13:04;4.70;;;1.20;;
32200;SDS011;18701;45.588;5.288;2023-08-12T06:15:30;5.20;;;0.93;;
32200;SDS011;18701;45.588;5.288;2023-08-12T06:17:56;1.80;;;0.95;;
32200;SDS011;18701;45.588;5.288;2023-08-12T06:20:22;4.07;;;1.00;;
32200;SDS011;18701;45.588;5.288;2023-08-12T06:22:49;1.98;;;0.65;;
32200;SDS011;18701;45.588;5.288;2023-08-12T06:25:15;2.25;;;0.80;;
32200;SDS011;18701;45.588;5.288;2023-08-12T06:27:41;3.67;;;1.20;;
32200;SDS011;18701;45.588;5.288;2023-08-12T06:30:07;3.17;;;1.10;;
32200;SDS011;18701;45.588;5.288;2023-08-12T06:32:33;3.22;;;1.02;;
32200;SDS011;18701;45.588;5.288;2023-08-12T06:35:00;3.40;;;0.90;;
32200;SDS011;18701;45.588;5.288;2023-08-12T06:37:25;9.30;;;1.25;;
32200;SDS011;18701;45.588;5.288;2023-08-12T06:39:51;1.48;;;0.80;;
32200;SDS011;18701;45.588;5.288;2023-08-12T06:42:16;5.38;;;1.10;;
32200;SDS011;18701;45.588;5.288;2023-08-12T06:44:42;8.60;;;1.08;;
32200;SDS011;18701;45.588;5.288;2023-08-12T06:47:08;7.72;;;1.40;;
32200;SDS011;18701;45.588;5.288;2023-08-12T06:49:33;5.53;;;0.70;;
32200;SDS011;18701;45.588;5.288;2023-08-12T06:51:59;4.80;;;1.42;;
32200;SDS011;18701;45.588;5.288;2023-08-12T06:54:24;3.47;;;0.95;;
32200;SDS011;18701;45.588;5.288;2023-08-12T06:56:50;7.90;;;1.38;;
32200;SDS011;18701;45.588;5.288;2023-08-12T06:59:16;3.95;;;1.00;;
32200;SDS011;18701;45.588;5.288;2023-08-12T07:01:42;4.38;;;1.20;;
32200;SDS011;18701;45.588;5.288;2023-08-12T07:04:07;2.20;;;0.80;;
32200;SDS011;18701;45.588;5.288;2023-08-12T07:06:33;3.22;;;1.17;;
32200;SDS011;18701;45.588;5.288;2023-08-12T07:08:58;7.18;;;1.15;;
32200;SDS011;18701;45.588;5.288;2023-08-12T07:11:24;6.50;;;0.93;;
32200;SDS011;18701;45.588;5.288;2023-08-12T07:13:50;7.78;;;1.23;;
32200;SDS011;18701;45.588;5.288;2023-08-12T07:16:15;3.83;;;0.90;;
32200;SDS011;18701;45.588;5.288;2023-08-12T07:18:41;3.70;;;0.90;;
32200;SDS011;18701;45.588;5.288;2023-08-12T07:21:07;2.47;;;1.00;;
32200;SDS011;18701;45.588;5.288;2023-08-12T07:23:32;7.95;;;1.17;;
32200;SDS011;18701;45.588;5.288;2023-08-12T07:25:58;5.88;;;1.52;;
32200;SDS011;18701;45.588;5.288;2023-08-12T07:28:23;4.13;;;1.08;;
32200;SDS011;18701;45.588;5.288;2023-08-12T07:30:49;4.78;;;1.00;;
32200;SDS011;18701;45.588;5.288;2023-08-12T07:33:15;7.82;;;1.17;;
32200;SDS011;18701;45.588;5.288;2023-08-12T07:35:41;3.97;;;1.15;;
32200;SDS011;18701;45.588;5.288;2023-08-12T07:38:06;2.25;;;0.70;;
32200;SDS011;18701;45.588;5.288;2023-08-12T07:40:32;3.40;;;1.30;;
32200;SDS011;18701;45.588;5.288;2023-08-12T07:42:58;2.17;;;1.05;;
32200;SDS011;18701;45.588;5.288;2023-08-12T07:45:23;4.75;;;1.02;;
32200;SDS011;18701;45.588;5.288;2023-08-12T07:47:49;5.95;;;1.00;;
32200;SDS011;18701;45.588;5.288;2023-08-12T07:50:15;1.40;;;0.57;;
32200;SDS011;18701;45.588;5.288;2023-08-12T07:52:41;2.15;;;1.08;;
32200;SDS011;18701;45.588;5.288;2023-08-12T07:55:07;2.40;;;1.23;;
32200;SDS011;18701;45.588;5.288;2023-08-12T07:57:33;4.20;;;0.90;;
32200;SDS011;18701;45.588;5.288;2023-08-12T07:59:58;2.38;;;1.00;;
32200;SDS011;18701;45.588;5.288;2023-08-12T08:02:24;6.03;;;1.00;;
32200;SDS011;18701;45.588;5.288;2023-08-12T08:04:50;2.97;;;0.85;;
32200;SDS011;18701;45.588;5.288;2023-08-12T08:07:16;4.60;;;1.20;;
32200;SDS011;18701;45.588;5.288;2023-08-12T08:09:42;5.63;;;1.23;;
32200;SDS011;18701;45.588;5.288;2023-08-12T08:12:08;3.55;;;1.25;;
32200;SDS011;18701;45.588;5.288;2023-08-12T08:14:34;5.40;;;0.90;;
32200;SDS011;18701;45.588;5.288;2023-08-12T08:17:01;4.28;;;0.75;;
32200;SDS011;18701;45.588;5.288;2023-08-12T08:19:26;3.20;;;1.42;;
32200;SDS011;18701;45.588;5.288;2023-08-12T08:21:52;2.25;;;0.88;;
32200;SDS011;18701;45.588;5.288;2023-08-12T08:24:18;5.88;;;1.02;;
32200;SDS011;18701;45.588;5.288;2023-08-12T08:26:44;5.88;;;1.00;;
32200;SDS011;18701;45.588;5.288;2023-08-12T08:29:12;2.97;;;0.82;;
32200;SDS011;18701;45.588;5.288;2023-08-12T08:31:38;3.75;;;0.90;;
32200;SDS011;18701;45.588;5.288;2023-08-12T08:34:04;3.92;;;0.80;;
32200;SDS011;18701;45.588;5.288;2023-08-12T08:36:29;7.40;;;1.38;;
32200;SDS011;18701;45.588;5.288;2023-08-12T08:38:55;2.70;;;0.88;;
32200;SDS011;18701;45.588;5.288;2023-08-12T08:41:21;2.10;;;0.90;;
32200;SDS011;18701;45.588;5.288;2023-08-12T08:43:50;3.33;;;1.20;;
32200;SDS011;18701;45.588;5.288;2023-08-12T08:46:19;3.07;;;1.20;;
32200;SDS011;18701;45.588;5.288;2023-08-12T08:48:45;7.32;;;1.00;;
32200;SDS011;18701;45.588;5.288;2023-08-12T08:51:13;8.13;;;1.10;;
32200;SDS011;18701;45.588;5.288;2023-08-12T08:53:39;7.07;;;1.15;;
32200;SDS011;18701;45.588;5.288;2023-08-12T08:56:06;3.88;;;1.27;;
32200;SDS011;18701;45.588;5.288;2023-08-12T08:58:33;3.42;;;1.02;;
32200;SDS011;18701;45.588;5.288;2023-08-12T09:00:59;1.45;;;0.95;;
32200;SDS011;18701;45.588;5.288;2023-08-12T09:03:25;3.10;;;1.02;;
32200;SDS011;18701;45.588;5.288;2023-08-12T09:05:52;4.00;;;1.00;;
32200;SDS011;18701;45.588;5.288;2023-08-12T09:08:20;6.15;;;1.13;;
32200;SDS011;18701;45.588;5.288;2023-08-12T09:10:47;5.03;;;1.10;;
32200;SDS011;18701;45.588;5.288;2023-08-12T09:13:13;4.97;;;1.38;;
32200;SDS011;18701;45.588;5.288;2023-08-12T09:15:40;6.25;;;1.15;;
32200;SDS011;18701;45.588;5.288;2023-08-12T09:18:05;2.80;;;1.40;;
32200;SDS011;18701;45.588;5.288;2023-08-12T09:20:32;4.50;;;1.20;;
32200;SDS011;18701;45.588;5.288;2023-08-12T09:23:01;5.32;;;1.33;;
32200;SDS011;18701;45.588;5.288;2023-08-12T09:25:28;5.78;;;1.30;;
32200;SDS011;18701;45.588;5.288;2023-08-12T09:27:55;6.53;;;1.17;;
32200;SDS011;18701;45.588;5.288;2023-08-12T09:30:23;2.75;;;1.10;;
32200;SDS011;18701;45.588;5.288;2023-08-12T09:33:02;3.42;;;1.17;;
32200;SDS011;18701;45.588;5.288;2023-08-12T09:35:38;5.15;;;1.48;;
32200;SDS011;18701;45.588;5.288;2023-08-12T09:38:06;6.85;;;1.30;;
32200;SDS011;18701;45.588;5.288;2023-08-12T09:40:36;10.30;;;1.50;;
32200;SDS011;18701;45.588;5.288;2023-08-12T09:43:03;4.63;;;1.52;;
32200;SDS011;18701;45.588;5.288;2023-08-12T09:45:30;6.63;;;1.30;;
32200;SDS011;18701;45.588;5.288;2023-08-12T09:47:56;8.65;;;1.52;;
32200;SDS011;18701;45.588;5.288;2023-08-12T09:50:22;5.25;;;1.30;;
32200;SDS011;18701;45.588;5.288;2023-08-12T09:52:50;6.22;;;1.23;;
32200;SDS011;18701;45.588;5.288;2023-08-12T09:55:17;10.30;;;1.45;;
32200;SDS011;18701;45.588;5.288;2023-08-12T09:57:48;11.73;;;1.50;;
32200;SDS011;18701;45.588;5.288;2023-08-12T10:00:15;8.02;;;1.60;;
32200;SDS011;18701;45.588;5.288;2023-08-12T10:02:43;4.00;;;1.45;;
32200;SDS011;18701;45.588;5.288;2023-08-12T10:05:12;3.72;;;1.58;;
32200;SDS011;18701;45.588;5.288;2023-08-12T10:07:40;5.97;;;1.15;;
32200;SDS011;18701;45.588;5.288;2023-08-12T10:10:08;3.92;;;1.50;;
32200;SDS011;18701;45.588;5.288;2023-08-12T10:12:34;6.70;;;1.40;;
32200;SDS011;18701;45.588;5.288;2023-08-12T10:15:02;4.47;;;1.02;;
32200;SDS011;18701;45.588;5.288;2023-08-12T10:17:28;4.88;;;1.35;;
32200;SDS011;18701;45.588;5.288;2023-08-12T10:19:57;5.20;;;2.03;;
32200;SDS011;18701;45.588;5.288;2023-08-12T10:22:24;5.57;;;1.33;;
32200;SDS011;18701;45.588;5.288;2023-08-12T10:24:51;2.95;;;1.17;;
32200;SDS011;18701;45.588;5.288;2023-08-12T10:27:17;5.28;;;1.52;;
32200;SDS011;18701;45.588;5.288;2023-08-12T10:29:43;5.43;;;1.27;;
32200;SDS011;18701;45.588;5.288;2023-08-12T10:32:09;5.75;;;1.60;;
32200;SDS011;18701;45.588;5.288;2023-08-12T10:34:35;4.65;;;1.55;;
32200;SDS011;18701;45.588;5.288;2023-08-12T10:37:01;5.38;;;1.80;;
32200;SDS011;18701;45.588;5.288;2023-08-12T10:39:27;10.00;;;1.70;;
32200;SDS011;18701;45.588;5.288;2023-08-12T10:41:54;5.57;;;2.00;;
32200;SDS011;18701;45.588;5.288;2023-08-12T10:44:21;3.00;;;1.55;;
32200;SDS011;18701;45.588;5.288;2023-08-12T10:46:50;4.53;;;1.70;;
32200;SDS011;18701;45.588;5.288;2023-08-12T10:49:18;7.75;;;1.85;;
32200;SDS011;18701;45.588;5.288;2023-08-12T10:51:46;3.75;;;1.60;;
32200;SDS011;18701;45.588;5.288;2023-08-12T10:54:14;4.55;;;1.90;;
32200;SDS011;18701;45.588;5.288;2023-08-12T10:57:03;6.75;;;1.63;;
32200;SDS011;18701;45.588;5.288;2023-08-12T10:59:48;10.20;;;1.38;;
32200;SDS011;18701;45.588;5.288;2023-08-12T11:02:19;8.82;;;1.63;;
32200;SDS011;18701;45.588;5.288;2023-08-12T11:07:38;4.50;;;1.75;;
32200;SDS011;18701;45.588;5.288;2023-08-12T11:13:02;5.93;;;1.63;;
32200;SDS011;18701;45.588;5.288;2023-08-12T11:15:39;4.05;;;1.67;;
32200;SDS011;18701;45.588;5.288;2023-08-12T11:18:13;7.00;;;1.67;;
32200;SDS011;18701;45.588;5.288;2023-08-12T11:20:41;4.60;;;1.40;;
32200;SDS011;18701;45.588;5.288;2023-08-12T11:23:07;3.85;;;1.38;;
32200;SDS011;18701;45.588;5.288;2023-08-12T11:25:36;4.35;;;1.15;;
32200;SDS011;18701;45.588;5.288;2023-08-12T11:28:06;4.28;;;1.52;;
32200;SDS011;18701;45.588;5.288;2023-08-12T11:30:32;5.95;;;1.73;;
32200;SDS011;18701;45.588;5.288;2023-08-12T11:32:59;2.95;;;1.48;;
32200;SDS011;18701;45.588;5.288;2023-08-12T11:35:26;9.23;;;1.60;;
32200;SDS011;18701;45.588;5.288;2023-08-12T11:37:52;8.07;;;1.73;;
32200;SDS011;18701;45.588;5.288;2023-08-12T11:40:20;4.05;;;1.40;;
32200;SDS011;18701;45.588;5.288;2023-08-12T11:42:47;3.67;;;1.95;;
32200;SDS011;18701;45.588;5.288;2023-08-12T11:45:19;8.35;;;1.88;;
32200;SDS011;18701;45.588;5.288;2023-08-12T11:47:46;8.07;;;1.45;;
32200;SDS011;18701;45.588;5.288;2023-08-12T11:50:17;6.47;;;1.67;;
32200;SDS011;18701;45.588;5.288;2023-08-12T11:52:43;4.97;;;1.50;;
32200;SDS011;18701;45.588;5.288;2023-08-12T11:55:12;2.97;;;1.55;;
32200;SDS011;18701;45.588;5.288;2023-08-12T11:57:41;7.30;;;1.85;;
32200;SDS011;18701;45.588;5.288;2023-08-12T12:00:09;4.30;;;1.42;;
32200;SDS011;18701;45.588;5.288;2023-08-12T12:02:40;6.25;;;1.50;;
32200;SDS011;18701;45.588;5.288;2023-08-12T12:05:10;6.47;;;1.67;;
32200;SDS011;18701;45.588;5.288;2023-08-12T12:07:36;4.68;;;1.88;;
32200;SDS011;18701;45.588;5.288;2023-08-12T12:10:03;4.07;;;1.70;;
32200;SDS011;18701;45.588;5.288;2023-08-12T12:12:30;5.93;;;2.45;;
32200;SDS011;18701;45.588;5.288;2023-08-12T12:15:00;5.70;;;2.03;;
32200;SDS011;18701;45.588;5.288;2023-08-12T12:17:26;5.07;;;1.58;;
32200;SDS011;18701;45.588;5.288;2023-08-12T12:19:54;9.57;;;1.75;;
32200;SDS011;18701;45.588;5.288;2023-08-12T12:22:26;6.22;;;1.65;;
32200;SDS011;18701;45.588;5.288;2023-08-12T12:25:08;4.90;;;1.45;;
32200;SDS011;18701;45.588;5.288;2023-08-12T12:27:36;7.63;;;1.45;;
32200;SDS011;18701;45.588;5.288;2023-08-12T12:30:03;2.78;;;1.15;;
32200;SDS011;18701;45.588;5.288;2023-08-12T12:32:29;4.75;;;1.65;;
32200;SDS011;18701;45.588;5.288;2023-08-12T12:34:54;8.27;;;1.77;;
32200;SDS011;18701;45.588;5.288;2023-08-12T12:37:20;5.55;;;1.77;;
32200;SDS011;18701;45.588;5.288;2023-08-12T12:39:46;4.47;;;1.30;;
32200;SDS011;18701;45.588;5.288;2023-08-12T12:42:11;5.32;;;1.27;;
32200;SDS011;18701;45.588;5.288;2023-08-12T12:44:37;7.13;;;1.63;;
32200;SDS011;18701;45.588;5.288;2023-08-12T12:47:03;10.05;;;1.60;;
32200;SDS011;18701;45.588;5.288;2023-08-12T12:49:29;11.30;;;2.08;;
32200;SDS011;18701;45.588;5.288;2023-08-12T12:51:55;8.95;;;1.10;;
32200;SDS011;18701;45.588;5.288;2023-08-12T12:54:20;5.75;;;1.52;;
32200;SDS011;18701;45.588;5.288;2023-08-12T12:56:46;6.07;;;1.42;;
32200;SDS011;18701;45.588;5.288;2023-08-12T12:59:12;5.18;;;1.30;;
32200;SDS011;18701;45.588;5.288;2023-08-12T13:01:39;9.85;;;1.55;;
32200;SDS011;18701;45.588;5.288;2023-08-12T13:04:06;8.68;;;1.77;;
32200;SDS011;18701;45.588;5.288;2023-08-12T13:06:33;6.78;;;1.77;;
32200;SDS011;18701;45.588;5.288;2023-08-12T13:08:59;8.52;;;1.25;;
32200;SDS011;18701;45.588;5.288;2023-08-12T13:11:25;9.00;;;1.65;;
32200;SDS011;18701;45.588;5.288;2023-08-12T13:13:51;5.18;;;1.42;;
32200;SDS011;18701;45.588;5.288;2023-08-12T13:16:17;5.22;;;1.55;;
32200;SDS011;18701;45.588;5.288;2023-08-12T13:18:42;6.68;;;1.60;;
32200;SDS011;18701;45.588;5.288;2023-08-12T13:21:08;7.32;;;1.90;;
32200;SDS011;18701;45.588;5.288;2023-08-12T13:23:34;9.35;;;2.15;;
32200;SDS011;18701;45.588;5.288;2023-08-12T13:25:59;9.07;;;1.92;;
32200;SDS011;18701;45.588;5.288;2023-08-12T13:28:25;6.88;;;1.95;;
32200;SDS011;18701;45.588;5.288;2023-08-12T13:30:50;9.70;;;2.45;;
32200;SDS011;18701;45.588;5.288;2023-08-12T13:33:16;5.55;;;1.80;;
32200;SDS011;18701;45.588;5.288;2023-08-12T13:35:42;4.07;;;1.50;;
32200;SDS011;18701;45.588;5.288;2023-08-12T13:38:07;12.15;;;1.58;;
32200;SDS011;18701;45.588;5.288;2023-08-12T13:40:33;11.55;;;1.45;;
32200;SDS011;18701;45.588;5.288;2023-08-12T13:42:58;4.53;;;1.48;;
32200;SDS011;18701;45.588;5.288;2023-08-12T13:45:24;8.68;;;1.73;;
32200;SDS011;18701;45.588;5.288;2023-08-12T13:47:50;9.95;;;2.13;;
32200;SDS011;18701;45.588;5.288;2023-08-12T13:50:19;9.10;;;1.50;;
32200;SDS011;18701;45.588;5.288;2023-08-12T13:52:45;7.47;;;1.75;;
32200;SDS011;18701;45.588;5.288;2023-08-12T13:55:15;5.38;;;1.90;;
32200;SDS011;18701;45.588;5.288;2023-08-12T13:57:41;5.60;;;1.75;;
32200;SDS011;18701;45.588;5.288;2023-08-12T14:00:07;8.63;;;1.70;;
32200;SDS011;18701;45.588;5.288;2023-08-12T14:02:35;9.23;;;1.50;;
32200;SDS011;18701;45.588;5.288;2023-08-12T14:05:01;5.15;;;1.50;;
32200;SDS011;18701;45.588;5.288;2023-08-12T14:07:28;5.82;;;1.58;;
32200;SDS011;18701;45.588;5.288;2023-08-12T14:09:54;6.65;;;1.58;;
32200;SDS011;18701;45.588;5.288;2023-08-12T14:12:19;6.43;;;1.60;;
32200;SDS011;18701;45.588;5.288;2023-08-12T14:14:45;5.38;;;1.67;;
32200;SDS011;18701;45.588;5.288;2023-08-12T14:17:11;6.72;;;1.70;;
32200;SDS011;18701;45.588;5.288;2023-08-12T14:19:39;6.32;;;1.20;;
32200;SDS011;18701;45.588;5.288;2023-08-12T14:22:06;7.40;;;1.95;;
32200;SDS011;18701;45.588;5.288;2023-08-12T14:24:32;6.57;;;1.65;;
32200;SDS011;18701;45.588;5.288;2023-08-12T14:26:58;5.03;;;1.77;;
32200;SDS011;18701;45.588;5.288;2023-08-12T14:29:23;4.78;;;1.58;;
32200;SDS011;18701;45.588;5.288;2023-08-12T14:31:49;5.30;;;1.75;;
32200;SDS011;18701;45.588;5.288;2023-08-12T14:34:16;3.95;;;1.45;;
32200;SDS011;18701;45.588;5.288;2023-08-12T14:36:41;3.97;;;1.27;;
32200;SDS011;18701;45.588;5.288;2023-08-12T14:39:07;8.30;;;1.38;;
32200;SDS011;18701;45.588;5.288;2023-08-12T14:41:32;3.17;;;1.25;;
32200;SDS011;18701;45.588;5.288;2023-08-12T14:43:58;7.38;;;1.45;;
32200;SDS011;18701;45.588;5.288;2023-08-12T14:46:24;3.35;;;1.50;;
32200;SDS011;18701;45.588;5.288;2023-08-12T14:48:49;5.72;;;1.55;;
32200;SDS011;18701;45.588;5.288;2023-08-12T14:51:15;9.60;;;1.63;;